createdAt,value
2023-03-02T00:04:58.356Z,5
2023-03-02T00:10:50.931Z,5
2023-03-02T00:16:44.135Z,5
2023-03-02T00:22:35.509Z,5
2023-03-02T00:28:28.620Z,4.9
2023-03-02T00:34:21.460Z,4.9
2023-03-02T00:40:13.814Z,4.9
2023-03-02T00:46:06.603Z,4.9
2023-03-02T00:51:44.056Z,4.9
2023-03-02T00:57:37.666Z,4.9
2023-03-02T01:03:31.293Z,4.9
2023-03-02T01:09:24.835Z,4.9
2023-03-02T01:15:17.725Z,4.9
2023-03-02T01:21:11.262Z,4.8
2023-03-02T01:26:49.351Z,4.9
2023-03-02T01:32:27.020Z,4.8
2023-03-02T01:38:20.528Z,4.8
2023-03-02T01:44:12.949Z,4.8
2023-03-02T01:49:50.358Z,4.8
2023-03-02T01:55:28.222Z,4.8
2023-03-02T02:01:22.037Z,4.7
2023-03-02T02:07:15.679Z,4.7
2023-03-02T02:13:08.597Z,4.6
2023-03-02T02:19:01.272Z,4.6
2023-03-02T02:24:39.018Z,4.6
2023-03-02T02:30:32.815Z,4.6
2023-03-02T02:36:26.089Z,4.6
2023-03-02T02:42:19.464Z,4.6
2023-03-02T02:47:41.085Z,4.6
2023-03-02T02:53:32.953Z,4.6
2023-03-02T02:59:11.182Z,4.6
2023-03-02T03:04:48.460Z,4.6
2023-03-02T03:10:25.584Z,4.6
2023-03-02T03:16:03.428Z,4.5
2023-03-02T03:21:56.640Z,4.5
2023-03-02T03:27:48.728Z,4.5
2023-03-02T03:33:42.766Z,4.4
2023-03-02T03:39:35.832Z,4.4
2023-03-02T03:45:30.407Z,4.5
2023-03-02T03:51:22.836Z,4.5
2023-03-02T03:57:17.478Z,4.5
2023-03-02T04:02:55.887Z,4.5
2023-03-02T04:08:33.559Z,4.5
2023-03-02T04:14:10.628Z,4.5
2023-03-02T04:19:32.196Z,4.4
2023-03-02T04:25:09.781Z,4.4
2023-03-02T04:30:47.945Z,4.4
2023-03-02T04:36:40.888Z,4.3
2023-03-02T04:42:33.390Z,4.3
2023-03-02T04:48:29.469Z,4.2
2023-03-02T04:54:21.878Z,4.2
2023-03-02T05:00:14.438Z,4.2
2023-03-02T05:06:09.537Z,4.1
2023-03-02T05:12:01.628Z,4.1
2023-03-02T05:17:54.840Z,4.1
2023-03-02T05:23:47.319Z,4.1
2023-03-02T05:29:40.238Z,4.1
2023-03-02T05:35:33.646Z,4.1
2023-03-02T05:41:27.146Z,4.1
2023-03-02T05:47:20.716Z,4.1
2023-03-02T05:53:13.918Z,4.2
2023-03-02T05:58:51.850Z,4.3
2023-03-02T06:04:29.063Z,4.3
2023-03-02T06:10:06.006Z,4.4
2023-03-02T06:15:43.482Z,4.5
2023-03-02T06:21:20.542Z,4.6
2023-03-02T06:26:58.859Z,4.7
2023-03-02T06:32:50.647Z,4.9
2023-03-02T06:38:28.399Z,5
2023-03-02T06:44:06.332Z,5.1
2023-03-02T06:49:43.911Z,5.2
2023-03-02T06:55:21.385Z,5.3
2023-03-02T07:00:59.948Z,5.4
2023-03-02T07:06:38.951Z,5.6
2023-03-02T07:12:16.701Z,5.8
2023-03-02T07:17:57.051Z,6
2023-03-02T07:23:34.601Z,6.4
2023-03-02T07:29:11.309Z,6.8
2023-03-02T07:34:49.286Z,7.2
2023-03-02T07:40:42.472Z,7.7
2023-03-02T07:46:35.571Z,8.2
2023-03-02T07:52:28.664Z,8.5
2023-03-02T07:58:05.743Z,8.8
2023-03-02T08:03:58.830Z,9.2
2023-03-02T08:09:51.884Z,9.6
2023-03-02T08:15:44.569Z,10
2023-03-02T08:21:36.648Z,10.4
2023-03-02T08:27:29.749Z,10.6
2023-03-02T08:33:07.623Z,10.9
2023-03-02T08:39:01.295Z,11.2
2023-03-02T08:44:55.158Z,11.6
2023-03-02T08:50:48.539Z,12.1
2023-03-02T08:56:41.508Z,12.7
2023-03-02T09:02:35.010Z,13.1
2023-03-02T09:08:28.593Z,13.5
2023-03-02T09:14:21.077Z,13.8
2023-03-02T09:20:14.044Z,14.1
2023-03-02T09:26:06.583Z,14.3
2023-03-02T09:31:59.024Z,14.4
2023-03-02T09:37:53.038Z,14.6
2023-03-02T09:43:56.133Z,15.9
2023-03-02T09:49:54.390Z,18.3
2023-03-02T09:55:49.028Z,19.8
2023-03-02T10:01:50.775Z,20.1
2023-03-02T10:07:34.815Z,19.6
2023-03-02T10:13:27.877Z,18.8
2023-03-02T10:19:24.261Z,18.1
2023-03-02T10:25:24.380Z,17.4
2023-03-02T10:31:17.483Z,16.8
2023-03-02T10:36:55.451Z,16.3
2023-03-02T10:42:47.741Z,16
2023-03-02T10:48:41.257Z,15.5
2023-03-02T10:54:50.370Z,15.4
2023-03-02T11:00:42.860Z,15.4
2023-03-02T11:06:37.014Z,15.6
2023-03-02T11:12:31.322Z,16.2
2023-03-02T11:24:02.101Z,17.6
2023-03-02T11:29:40.358Z,17.9
2023-03-02T11:35:44.969Z,18.4
2023-03-02T11:41:43.039Z,18.6
2023-03-02T11:47:34.045Z,18.6
2023-03-02T11:53:45.519Z,18.2
2023-03-02T11:59:40.640Z,17.9
2023-03-02T12:05:03.956Z,17.3
2023-03-02T12:10:57.495Z,16.8
2023-03-02T12:16:52.248Z,16.4
2023-03-02T12:22:45.159Z,15.8
2023-03-02T12:28:37.664Z,15.3
2023-03-02T12:34:31.337Z,15.1
2023-03-02T12:40:24.390Z,15.2
2023-03-02T12:46:18.512Z,15.5
2023-03-02T12:52:16.038Z,16.6
2023-03-02T12:58:08.938Z,17.2
2023-03-02T13:04:02.435Z,17.2
2023-03-02T13:09:59.817Z,17.1
2023-03-02T13:15:52.151Z,16.9
2023-03-02T13:21:45.336Z,17.1
2023-03-02T13:27:38.121Z,17.2
2023-03-02T13:33:32.482Z,17.1
2023-03-02T13:39:25.619Z,16.6
2023-03-02T13:45:18.010Z,16.2
2023-03-02T13:51:27.621Z,15.8
2023-03-02T13:57:20.078Z,15.6
2023-03-02T14:03:13.937Z,15.8
2023-03-02T14:09:08.265Z,16.3
2023-03-02T14:14:46.342Z,16.8
2023-03-02T14:20:38.617Z,16.8
2023-03-02T14:26:33.019Z,16.6
2023-03-02T14:32:32.096Z,16.1
2023-03-02T14:38:24.398Z,15.7
2023-03-02T14:44:28.546Z,15.1
2023-03-02T14:50:21.132Z,14.7
2023-03-02T14:56:13.598Z,13.9
2023-03-02T15:02:22.836Z,13.4
2023-03-02T15:08:35.499Z,12.7
2023-03-02T15:14:12.172Z,12.2
2023-03-02T15:20:05.080Z,11.8
2023-03-02T15:26:01.724Z,11.4
2023-03-02T15:31:54.880Z,11
2023-03-02T15:37:47.705Z,10.6
2023-03-02T15:43:42.297Z,10.3
2023-03-02T15:49:35.174Z,9.9
2023-03-02T15:55:28.973Z,9.4
2023-03-02T16:01:17.749Z,9.1
2023-03-02T16:07:11.397Z,8.8
2023-03-02T16:13:04.999Z,8.4
2023-03-02T16:18:57.544Z,8.1
2023-03-02T16:24:51.099Z,7.9
2023-03-02T16:30:44.687Z,7.7
2023-03-02T16:36:38.086Z,7.4
2023-03-02T16:42:31.414Z,7.3
2023-03-02T16:48:09.983Z,7.1
2023-03-02T16:54:03.281Z,6.9
2023-03-02T16:59:56.976Z,6.7
2023-03-02T17:05:51.067Z,6.5
2023-03-02T17:11:48.890Z,6.3
2023-03-02T17:17:41.779Z,6.1
2023-03-02T17:23:34.678Z,6
2023-03-02T17:29:43.018Z,5.8
2023-03-02T17:35:35.440Z,5.7
2023-03-02T17:41:28.285Z,5.6
2023-03-02T17:47:25.276Z,5.4
2023-03-02T17:53:18.442Z,5.3
2023-03-02T17:59:18.828Z,5.2
2023-03-02T18:05:12.071Z,5.1
2023-03-02T18:11:08.659Z,4.9
2023-03-02T18:17:01.602Z,4.8
2023-03-02T18:22:39.092Z,4.7
2023-03-02T18:28:33.413Z,4.6
2023-03-02T18:34:27.126Z,4.4
2023-03-02T18:40:04.361Z,4.4
2023-03-02T18:45:57.044Z,4.4
2023-03-02T18:51:50.060Z,4.3
2023-03-02T18:57:43.351Z,4.3
2023-03-02T19:03:36.789Z,4.3
2023-03-02T19:09:29.005Z,4.2
2023-03-02T19:15:09.556Z,4.1
2023-03-02T19:21:04.233Z,4.1
2023-03-02T19:26:57.327Z,3.9
2023-03-02T19:32:51.052Z,3.9
2023-03-02T19:38:28.335Z,3.8
2023-03-02T19:44:21.545Z,3.8
2023-03-02T19:50:16.404Z,3.6
2023-03-02T19:56:10.012Z,3.6
2023-03-02T20:02:05.164Z,3.5
2023-03-02T20:07:42.876Z,3.5
2023-03-02T20:13:36.541Z,3.4
2023-03-02T20:19:40.340Z,3.4
2023-03-02T20:25:33.025Z,3.5
2023-03-02T20:31:26.354Z,3.6
2023-03-02T20:37:20.809Z,3.6
2023-03-02T20:43:16.875Z,3.7
2023-03-02T20:49:10.334Z,3.7
2023-03-02T20:55:03.487Z,3.7
2023-03-02T21:00:41.478Z,3.8
2023-03-02T21:06:34.606Z,3.8
2023-03-02T21:12:30.544Z,3.8
2023-03-02T21:18:26.177Z,3.8
2023-03-02T21:24:16.293Z,3.8
2023-03-02T21:30:12.466Z,3.8
2023-03-02T21:36:07.155Z,3.8
2023-03-02T21:42:01.320Z,3.8
2023-03-02T21:47:55.168Z,3.8
2023-03-02T21:53:34.765Z,3.7
2023-03-02T21:59:28.377Z,3.6
2023-03-02T22:05:21.330Z,3.6
2023-03-02T22:11:14.113Z,3.5
2023-03-02T22:17:07.971Z,3.4
2023-03-02T22:23:02.055Z,3.4
2023-03-02T22:28:54.657Z,3.4
2023-03-02T22:34:47.442Z,3.4
2023-03-02T22:40:41.259Z,3.3
2023-03-02T22:46:34.468Z,3.2
2023-03-02T22:52:28.343Z,3.1
2023-03-02T22:58:22.426Z,2.9
2023-03-02T23:04:15.873Z,2.9
2023-03-02T23:10:09.340Z,2.9
2023-03-02T23:16:03.382Z,3
2023-03-02T23:21:56.395Z,3.1
2023-03-02T23:27:48.662Z,3.1
2023-03-02T23:33:41.899Z,3.2
2023-03-02T23:39:34.470Z,3.2
2023-03-02T23:45:26.800Z,3.3
2023-03-02T23:51:19.399Z,3.3
2023-03-02T23:57:13.614Z,3.3
